Time;durP1;ratioP1;P1;durP2;ratioP2;P2;SDS_P1;SDS_P2;PMS_P1;PMS_P2;Temp;Humidity;BMP_temperature;BMP_pressure;BME280_temperature;BME280_humidity;BME280_pressure;Samples;Min_cycle;Max_cycle;Signal;HPM_P1;HPM_P2
2023/06/10 00:02:00;;;;;;;8.25;7.18;;;;;;;;;;5082271;28;20453;-85
2023/06/10 00:04:27;;;;;;;8.57;7.70;;;;;;;;;;5099257;28;20401;-85
2023/06/10 00:06:53;;;;;;;8.25;7.45;;;;;;;;;;5072701;28;20198;-85
2023/06/10 00:09:21;;;;;;;8.18;7.45;;;;;;;;;;5085310;28;20421;-85
2023/06/10 00:11:49;;;;;;;8.03;7.27;;;;;;;;;;5074717;28;20596;-85
2023/06/10 00:14:15;;;;;;;7.95;7.10;;;;;;;;;;5079956;28;20436;-85
2023/06/10 00:16:44;;;;;;;8.27;7.43;;;;;;;;;;5057753;28;20430;-85
2023/06/10 00:19:13;;;;;;;7.53;6.82;;;;;;;;;;5076708;28;20182;-85
2023/06/10 00:21:40;;;;;;;9.40;7.35;;;;;;;;;;5060551;28;20207;-84
2023/06/10 00:24:11;;;;;;;7.80;6.68;;;;;;;;;;5069394;28;20185;-84
2023/06/10 00:26:38;;;;;;;10.68;7.10;;;;;;;;;;5085179;28;20174;-89
2023/06/10 00:29:04;;;;;;;9.57;7.10;;;;;;;;;;5051529;28;20187;-89
2023/06/10 00:31:33;;;;;;;9.90;7.07;;;;;;;;;;5068537;28;20172;-89
2023/06/10 00:33:59;;;;;;;9.67;7.47;;;;;;;;;;5063763;28;20410;-88
2023/06/10 00:36:25;;;;;;;8.38;6.75;;;;;;;;;;5085372;28;20412;-88
2023/06/10 00:38:51;;;;;;;9.50;7.45;;;;;;;;;;5084609;28;20398;-88
2023/06/10 00:41:20;;;;;;;10.63;7.30;;;;;;;;;;5069326;28;20199;-88
2023/06/10 00:43:46;;;;;;;7.93;7.13;;;;;;;;;;5083769;28;20259;-88
2023/06/10 00:46:13;;;;;;;11.40;7.40;;;;;;;;;;5071062;28;20174;-88
2023/06/10 00:48:40;;;;;;;7.35;6.65;;;;;;;;;;5090963;28;20192;-88
2023/06/10 00:51:08;;;;;;;9.10;7.05;;;;;;;;;;5072281;28;20399;-88
2023/06/10 00:53:35;;;;;;;7.20;6.50;;;;;;;;;;5073522;28;20220;-88
2023/06/10 00:56:02;;;;;;;7.32;6.72;;;;;;;;;;5084371;28;20297;-88
2023/06/10 00:58:28;;;;;;;9.43;6.90;;;;;;;;;;5061492;28;20433;-89
2023/06/10 01:00:55;;;;;;;10.88;7.10;;;;;;;;;;5065446;28;20436;-87
2023/06/10 01:03:23;;;;;;;7.40;6.70;;;;;;;;;;5093420;28;20216;-89
2023/06/10 01:05:55;;;;;;;8.68;6.78;;;;;;;;;;5107001;28;20205;-88
2023/06/10 01:08:41;;;;;;;7.80;6.38;;;;;;;;;;5097478;28;20174;-88
2023/06/10 01:11:09;;;;;;;8.03;7.07;;;;;;;;;;5096111;28;20170;-87
2023/06/10 01:13:36;;;;;;;7.80;6.05;;;;;;;;;;5096855;28;20227;-88
2023/06/10 01:16:03;;;;;;;7.93;6.72;;;;;;;;;;5096407;28;20192;-88
2023/06/10 01:18:32;;;;;;;7.90;6.78;;;;;;;;;;5096699;28;20193;-88
2023/06/10 01:20:58;;;;;;;7.50;6.40;;;;;;;;;;5092798;28;20217;-89
2023/06/10 01:23:24;;;;;;;8.15;6.90;;;;;;;;;;5075354;28;20420;-88
2023/06/10 01:25:55;;;;;;;8.48;6.88;;;;;;;;;;5078470;28;20421;-88
2023/06/10 01:28:21;;;;;;;11.07;6.97;;;;;;;;;;5097166;28;20256;-85
2023/06/10 01:30:53;;;;;;;9.18;6.53;;;;;;;;;;5095915;28;20431;-85
2023/06/10 01:33:23;;;;;;;7.63;6.65;;;;;;;;;;5096753;28;20181;-85
2023/06/10 01:35:50;;;;;;;6.70;6.00;;;;;;;;;;5095590;28;20180;-85
2023/06/10 01:38:18;;;;;;;7.25;6.55;;;;;;;;;;5095950;28;20186;-85
2023/06/10 01:40:44;;;;;;;9.38;6.63;;;;;;;;;;5081902;28;20190;-85
2023/06/10 01:43:10;;;;;;;9.27;6.28;;;;;;;;;;5095512;28;20186;-85
2023/06/10 01:45:36;;;;;;;7.00;6.07;;;;;;;;;;5096737;28;20197;-85
2023/06/10 01:48:02;;;;;;;8.43;6.15;;;;;;;;;;5094309;28;20213;-85
2023/06/10 01:50:29;;;;;;;8.80;6.33;;;;;;;;;;5096936;28;20181;-85
2023/06/10 01:52:55;;;;;;;7.87;6.47;;;;;;;;;;5094489;28;20174;-86
2023/06/10 01:55:23;;;;;;;7.80;6.30;;;;;;;;;;5096701;28;20182;-85
2023/06/10 01:57:49;;;;;;;8.00;6.68;;;;;;;;;;5095037;28;20434;-84
2023/06/10 02:00:15;;;;;;;7.80;7.00;;;;;;;;;;5092127;28;20417;-85
2023/06/10 02:02:41;;;;;;;9.57;6.93;;;;;;;;;;5095288;28;20446;-85
2023/06/10 02:05:07;;;;;;;7.73;6.80;;;;;;;;;;5091968;28;20443;-85
2023/06/10 02:07:33;;;;;;;9.20;6.50;;;;;;;;;;5091766;28;20401;-84
2023/06/10 02:09:59;;;;;;;7.35;6.55;;;;;;;;;;5093818;28;20414;-85
2023/06/10 02:12:26;;;;;;;9.13;7.00;;;;;;;;;;5091826;28;20400;-85
2023/06/10 02:14:54;;;;;;;7.60;6.82;;;;;;;;;;5094981;28;20395;-85
2023/06/10 02:17:20;;;;;;;8.82;7.10;;;;;;;;;;5111658;28;20493;-85
2023/06/10 02:19:52;;;;;;;8.27;6.65;;;;;;;;;;5095641;28;20403;-85
2023/06/10 02:22:18;;;;;;;8.15;6.80;;;;;;;;;;5112084;28;20423;-85
2023/06/10 02:24:44;;;;;;;7.82;6.53;;;;;;;;;;5095222;28;20431;-84
2023/06/10 02:27:10;;;;;;;8.48;6.80;;;;;;;;;;5090294;28;20406;-84
2023/06/10 02:29:39;;;;;;;9.70;6.78;;;;;;;;;;5095110;28;20396;-84
2023/06/10 02:32:05;;;;;;;9.35;6.70;;;;;;;;;;5091937;28;20478;-84
2023/06/10 02:34:31;;;;;;;8.05;6.85;;;;;;;;;;5091709;28;20408;-85
2023/06/10 02:37:00;;;;;;;9.97;6.90;;;;;;;;;;5091894;28;20397;-84
2023/06/10 02:39:26;;;;;;;9.25;6.78;;;;;;;;;;5075469;28;20416;-84
2023/06/10 02:41:52;;;;;;;8.23;6.72;;;;;;;;;;5074588;28;20428;-85
2023/06/10 02:44:21;;;;;;;9.45;7.00;;;;;;;;;;5091493;28;20696;-84
2023/06/10 02:46:47;;;;;;;7.93;6.80;;;;;;;;;;5090040;28;20423;-84
2023/06/10 02:49:13;;;;;;;11.55;6.93;;;;;;;;;;5091808;28;20397;-84
2023/06/10 02:51:39;;;;;;;7.63;6.55;;;;;;;;;;5074742;28;20480;-85
2023/06/10 02:54:08;;;;;;;7.88;7.07;;;;;;;;;;5094514;28;20412;-85
2023/06/10 02:56:34;;;;;;;9.02;6.78;;;;;;;;;;5095160;28;20486;-85
2023/06/10 02:59:00;;;;;;;10.00;6.90;;;;;;;;;;5083952;28;20436;-85
2023/06/10 03:01:27;;;;;;;11.55;6.72;;;;;;;;;;5111239;28;20462;-84
2023/06/10 03:03:53;;;;;;;8.90;6.93;;;;;;;;;;5077514;28;20416;-84
2023/06/10 03:06:19;;;;;;;9.70;7.30;;;;;;;;;;5111762;28;20413;-85
2023/06/10 03:08:50;;;;;;;10.57;7.25;;;;;;;;;;5047438;28;20422;-84
2023/06/10 03:11:16;;;;;;;10.68;6.82;;;;;;;;;;5073269;28;20450;-84
2023/06/10 03:13:42;;;;;;;8.15;6.95;;;;;;;;;;5077441;28;20409;-84
2023/06/10 03:16:08;;;;;;;9.63;7.00;;;;;;;;;;5061246;28;20486;-85
2023/06/10 03:18:37;;;;;;;9.73;6.77;;;;;;;;;;5060784;28;20425;-84
2023/06/10 03:21:03;;;;;;;9.35;6.97;;;;;;;;;;5058023;28;20468;-84
2023/06/10 03:23:29;;;;;;;10.52;7.22;;;;;;;;;;5068609;28;20412;-85
2023/06/10 03:25:55;;;;;;;8.45;7.05;;;;;;;;;;5061711;28;20440;-85
2023/06/10 03:28:21;;;;;;;10.18;7.00;;;;;;;;;;5061747;28;20404;-85
2023/06/10 03:30:48;;;;;;;9.77;7.43;;;;;;;;;;5078255;28;20413;-85
2023/06/10 03:33:14;;;;;;;8.65;7.20;;;;;;;;;;5078077;28;20397;-84
2023/06/10 03:35:43;;;;;;;10.32;7.47;;;;;;;;;;5077957;28;20416;-85
2023/06/10 03:38:09;;;;;;;10.82;7.45;;;;;;;;;;5111638;28;20409;-85
2023/06/10 03:40:35;;;;;;;7.88;7.07;;;;;;;;;;5075770;28;20448;-85
2023/06/10 03:43:01;;;;;;;8.18;7.30;;;;;;;;;;5110301;28;20425;-84
2023/06/10 03:45:30;;;;;;;8.98;7.38;;;;;;;;;;5111832;28;20480;-84
2023/06/10 03:47:57;;;;;;;10.35;7.60;;;;;;;;;;5112056;28;20400;-84
2023/06/10 03:50:27;;;;;;;8.13;7.15;;;;;;;;;;5095298;28;20427;-84
2023/06/10 03:52:53;;;;;;;9.80;6.75;;;;;;;;;;5078171;28;20433;-84
2023/06/10 03:55:21;;;;;;;9.18;7.18;;;;;;;;;;5078187;28;20417;-85
2023/06/10 03:57:50;;;;;;;10.50;7.45;;;;;;;;;;5094236;28;20423;-84
2023/06/10 04:00:17;;;;;;;12.52;7.75;;;;;;;;;;5097591;28;20423;-84
2023/06/10 04:02:45;;;;;;;9.68;7.47;;;;;;;;;;5097177;28;20423;-84
2023/06/10 04:05:17;;;;;;;8.55;7.22;;;;;;;;;;5096658;28;20399;-84
2023/06/10 04:07:44;;;;;;;10.73;7.40;;;;;;;;;;5093701;28;20416;-84
2023/06/10 04:10:12;;;;;;;10.13;7.28;;;;;;;;;;5094076;28;20401;-84
2023/06/10 04:12:38;;;;;;;9.07;7.28;;;;;;;;;;5094323;28;20505;-84
2023/06/10 04:15:04;;;;;;;9.55;7.80;;;;;;;;;;5079833;28;20407;-85
2023/06/10 04:17:31;;;;;;;11.20;7.60;;;;;;;;;;5097160;28;20464;-84
2023/06/10 04:19:57;;;;;;;9.95;7.40;;;;;;;;;;5097394;28;20407;-85
2023/06/10 04:22:24;;;;;;;12.30;7.55;;;;;;;;;;5097451;28;20419;-85
2023/06/10 04:24:50;;;;;;;9.48;7.63;;;;;;;;;;5080273;28;20467;-85
2023/06/10 04:27:18;;;;;;;11.50;7.38;;;;;;;;;;5080144;28;20399;-85
2023/06/10 04:29:44;;;;;;;9.10;7.40;;;;;;;;;;5097096;28;20444;-85
2023/06/10 04:32:10;;;;;;;10.93;7.32;;;;;;;;;;5096498;28;20400;-84
2023/06/10 04:34:39;;;;;;;8.82;7.93;;;;;;;;;;5096487;28;20461;-85
2023/06/10 04:37:05;;;;;;;10.05;7.20;;;;;;;;;;5097306;28;20423;-85
2023/06/10 04:39:32;;;;;;;10.90;7.57;;;;;;;;;;5096073;28;20438;-85
2023/06/10 04:41:58;;;;;;;10.32;7.68;;;;;;;;;;5086225;28;20433;-85
2023/06/10 04:44:24;;;;;;;11.00;7.97;;;;;;;;;;5096571;28;20414;-84
2023/06/10 04:46:50;;;;;;;9.50;7.30;;;;;;;;;;5094398;28;20410;-85
2023/06/10 04:49:16;;;;;;;13.00;7.28;;;;;;;;;;5095937;28;20430;-85
2023/06/10 04:51:42;;;;;;;9.33;7.57;;;;;;;;;;5095752;28;20506;-84
2023/06/10 04:54:09;;;;;;;10.02;7.65;;;;;;;;;;5096382;28;20410;-85
2023/06/10 04:56:35;;;;;;;8.82;7.60;;;;;;;;;;5092952;28;20397;-85
2023/06/10 04:59:01;;;;;;;9.68;7.50;;;;;;;;;;5093084;28;20503;-85
2023/06/10 05:01:27;;;;;;;10.43;7.97;;;;;;;;;;5096305;28;20427;-84
2023/06/10 05:03:53;;;;;;;8.93;7.70;;;;;;;;;;5096126;28;20399;-84
2023/06/10 05:06:19;;;;;;;9.95;7.60;;;;;;;;;;5078955;28;20486;-84
2023/06/10 05:08:45;;;;;;;9.13;7.50;;;;;;;;;;5096019;28;20403;-84
2023/06/10 05:11:11;;;;;;;8.45;7.47;;;;;;;;;;5096315;28;20415;-85
2023/06/10 05:13:39;;;;;;;9.98;7.85;;;;;;;;;;5096338;28;20478;-84
2023/06/10 05:16:07;;;;;;;10.82;7.63;;;;;;;;;;5096001;28;20413;-85
2023/06/10 05:18:33;;;;;;;10.93;7.70;;;;;;;;;;5096350;28;20403;-85
2023/06/10 05:20:59;;;;;;;10.18;7.85;;;;;;;;;;5096415;28;20497;-84
2023/06/10 05:23:28;;;;;;;9.80;7.70;;;;;;;;;;5077462;28;20523;-85
2023/06/10 05:25:54;;;;;;;9.63;7.95;;;;;;;;;;5071742;28;20411;-84
2023/06/10 05:28:20;;;;;;;9.37;7.00;;;;;;;;;;5112966;28;20226;-85
2023/06/10 05:30:48;;;;;;;11.90;7.40;;;;;;;;;;5110544;28;20182;-85
2023/06/10 05:33:14;;;;;;;11.10;7.83;;;;;;;;;;5113310;28;20186;-84
2023/06/10 05:35:40;;;;;;;13.07;7.27;;;;;;;;;;5080483;28;20186;-83
2023/06/10 05:38:06;;;;;;;10.00;7.10;;;;;;;;;;5078938;28;20178;-84
2023/06/10 05:40:35;;;;;;;9.87;7.30;;;;;;;;;;5093874;28;20178;-84
2023/06/10 05:43:01;;;;;;;12.00;7.13;;;;;;;;;;5096360;28;20204;-83
2023/06/10 05:45:28;;;;;;;11.90;6.90;;;;;;;;;;5097172;28;20174;-83
2023/06/10 05:47:56;;;;;;;10.00;7.00;;;;;;;;;;5081968;28;20188;-84
2023/06/10 05:50:22;;;;;;;9.03;7.03;;;;;;;;;;5093126;28;20179;-84
2023/06/10 05:52:48;;;;;;;10.73;7.23;;;;;;;;;;5093464;28;20170;-85
2023/06/10 05:55:14;;;;;;;9.17;7.47;;;;;;;;;;5093675;28;20201;-84
2023/06/10 05:57:43;;;;;;;13.07;7.53;;;;;;;;;;5095200;28;20182;-85
2023/06/10 06:00:09;;;;;;;7.77;6.70;;;;;;;;;;5096623;28;20189;-83
2023/06/10 06:02:35;;;;;;;11.17;7.13;;;;;;;;;;5079483;28;20210;-85
2023/06/10 06:05:01;;;;;;;8.23;7.10;;;;;;;;;;5078232;28;20198;-84
2023/06/10 06:07:27;;;;;;;8.90;6.67;;;;;;;;;;5095527;28;20261;-84
2023/06/10 06:09:53;;;;;;;10.30;7.20;;;;;;;;;;5097050;28;20185;-83
2023/06/10 06:12:19;;;;;;;8.20;6.80;;;;;;;;;;5095231;28;20207;-83
2023/06/10 06:14:45;;;;;;;8.67;7.10;;;;;;;;;;5095540;28;20181;-82
2023/06/10 06:17:12;;;;;;;9.97;7.30;;;;;;;;;;5096425;28;20178;-82
2023/06/10 06:19:38;;;;;;;10.93;7.57;;;;;;;;;;5079101;28;20186;-83
2023/06/10 06:22:04;;;;;;;9.45;7.00;;;;;;;;;;5096228;28;20419;-82
2023/06/10 06:24:30;;;;;;;15.63;7.00;;;;;;;;;;5094499;28;20180;-89
2023/06/10 06:26:56;;;;;;;12.73;7.20;;;;;;;;;;5080209;28;20216;-89
2023/06/10 06:29:22;;;;;;;15.10;7.20;;;;;;;;;;5101357;28;20181;-90
2023/06/10 06:31:48;;;;;;;42.90;9.13;;;;;;;;;;5086153;28;20190;-89
2023/06/10 06:34:14;;;;;;;21.43;7.40;;;;;;;;;;5102263;28;20211;-89
2023/06/10 06:36:40;;;;;;;11.57;6.37;;;;;;;;;;5101831;28;20178;-89
2023/06/10 06:39:07;;;;;;;10.32;7.55;;;;;;;;;;5115266;28;20421;-89
2023/06/10 06:41:33;;;;;;;9.95;8.00;;;;;;;;;;5085733;28;20205;-89
2023/06/10 06:43:59;;;;;;;11.53;6.93;;;;;;;;;;5082161;28;20496;-89
2023/06/10 06:46:25;;;;;;;7.83;6.97;;;;;;;;;;5101977;28;20177;-89
2023/06/10 06:48:54;;;;;;;9.43;6.50;;;;;;;;;;5102185;28;20192;-92
2023/06/10 06:51:20;;;;;;;9.03;7.27;;;;;;;;;;5118543;28;20197;-91
2023/06/10 06:53:46;;;;;;;11.37;7.13;;;;;;;;;;5102072;28;20189;-90
2023/06/10 06:56:15;;;;;;;8.30;7.03;;;;;;;;;;5100891;28;20183;-90
2023/06/10 06:58:41;;;;;;;10.47;7.33;;;;;;;;;;5097031;28;20226;-90
2023/06/10 07:01:08;;;;;;;11.57;7.00;;;;;;;;;;5102691;28;20201;-90
2023/06/10 07:03:34;;;;;;;8.05;6.60;;;;;;;;;;5085530;28;20185;-90
2023/06/10 07:06:00;;;;;;;7.70;6.55;;;;;;;;;;5102771;28;20216;-88
2023/06/10 07:08:26;;;;;;;9.47;6.97;;;;;;;;;;5102403;28;20169;-89
2023/06/10 07:10:53;;;;;;;10.27;6.67;;;;;;;;;;5085957;28;20181;-89
2023/06/10 07:13:21;;;;;;;7.37;6.50;;;;;;;;;;5103019;28;20181;-90
2023/06/10 07:15:47;;;;;;;9.20;6.40;;;;;;;;;;5102781;28;20212;-90
2023/06/10 07:18:13;;;;;;;11.07;6.63;;;;;;;;;;5102866;28;20178;-90
2023/06/10 07:20:39;;;;;;;11.07;7.57;;;;;;;;;;5086474;28;20207;-89
2023/06/10 07:23:08;;;;;;;8.40;6.65;;;;;;;;;;5086003;28;20209;-88
2023/06/10 07:25:34;;;;;;;8.40;6.60;;;;;;;;;;5085845;28;20189;-89
2023/06/10 07:28:00;;;;;;;8.88;6.65;;;;;;;;;;5102625;28;20170;-89
2023/06/10 07:30:26;;;;;;;7.68;6.22;;;;;;;;;;5102528;28;20184;-89
2023/06/10 07:32:55;;;;;;;16.50;7.13;;;;;;;;;;5101894;28;20185;-91
2023/06/10 07:35:21;;;;;;;8.50;6.30;;;;;;;;;;5100936;28;20171;-89
2023/06/10 07:37:47;;;;;;;11.88;6.60;;;;;;;;;;5098920;28;20186;-89
2023/06/10 07:40:13;;;;;;;8.37;6.53;;;;;;;;;;5095190;28;20186;-89
2023/06/10 07:42:39;;;;;;;8.50;6.15;;;;;;;;;;5062602;28;20305;-89
2023/06/10 07:45:06;;;;;;;9.02;6.55;;;;;;;;;;5096350;28;20181;-88
2023/06/10 07:47:33;;;;;;;9.18;6.03;;;;;;;;;;5062477;28;20179;-89
2023/06/10 07:50:02;;;;;;;9.60;6.70;;;;;;;;;;5094653;28;20178;-88
2023/06/10 07:52:28;;;;;;;10.30;6.07;;;;;;;;;;5095078;28;20179;-89
2023/06/10 07:54:54;;;;;;;10.20;6.10;;;;;;;;;;5061753;28;20182;-89
2023/06/10 07:57:20;;;;;;;8.98;5.85;;;;;;;;;;5096230;28;20188;-89
2023/06/10 07:59:47;;;;;;;6.72;6.03;;;;;;;;;;5058602;28;20231;-89
2023/06/10 08:02:13;;;;;;;9.00;6.18;;;;;;;;;;5058445;28;20211;-89
2023/06/10 08:04:39;;;;;;;9.45;6.40;;;;;;;;;;5058746;28;20164;-88
2023/06/10 08:07:05;;;;;;;9.35;5.57;;;;;;;;;;5058932;28;20172;-88
2023/06/10 08:09:31;;;;;;;8.10;5.70;;;;;;;;;;5058545;28;20175;-89
2023/06/10 08:11:57;;;;;;;9.25;6.00;;;;;;;;;;5058628;28;20175;-88
2023/06/10 08:14:23;;;;;;;8.23;5.82;;;;;;;;;;5041903;28;20186;-87
2023/06/10 08:16:49;;;;;;;10.10;6.00;;;;;;;;;;5042395;28;20179;-88
2023/06/10 08:19:15;;;;;;;9.68;6.05;;;;;;;;;;5041985;28;20277;-88
2023/06/10 08:21:41;;;;;;;9.40;5.50;;;;;;;;;;5058343;28;20203;-88
2023/06/10 08:24:08;;;;;;;7.68;5.88;;;;;;;;;;5058533;28;20217;-89
2023/06/10 08:26:34;;;;;;;6.18;5.50;;;;;;;;;;5091353;28;20179;-88
2023/06/10 08:29:00;;;;;;;6.72;5.93;;;;;;;;;;5058406;28;20217;-88
2023/06/10 08:31:26;;;;;;;9.18;6.05;;;;;;;;;;5058295;28;20175;-87
2023/06/10 08:33:52;;;;;;;7.85;6.07;;;;;;;;;;5058130;28;20179;-88
2023/06/10 08:36:18;;;;;;;9.63;5.63;;;;;;;;;;5058620;28;20186;-89
2023/06/10 08:38:44;;;;;;;9.00;5.70;;;;;;;;;;5057802;28;20187;-88
2023/06/10 08:41:13;;;;;;;8.32;5.93;;;;;;;;;;5058690;28;20182;-88
2023/06/10 08:43:44;;;;;;;8.00;5.53;;;;;;;;;;5066289;28;20167;-88
2023/06/10 08:46:11;;;;;;;7.90;5.50;;;;;;;;;;5094718;28;20186;-89
2023/06/10 08:48:41;;;;;;;9.45;5.43;;;;;;;;;;5094197;28;20174;-89
2023/06/10 08:51:10;;;;;;;7.47;5.20;;;;;;;;;;5094410;28;20174;-88
2023/06/10 08:53:38;;;;;;;7.28;5.63;;;;;;;;;;5094748;28;20167;-90
2023/06/10 08:56:04;;;;;;;8.77;5.57;;;;;;;;;;5094473;28;20167;-89
2023/06/10 08:58:41;;;;;;;8.43;5.70;;;;;;;;;;5094136;28;20306;-88
2023/06/10 09:01:08;;;;;;;6.32;5.20;;;;;;;;;;5093207;28;20265;-88
2023/06/10 09:03:35;;;;;;;9.55;5.90;;;;;;;;;;5098491;28;20208;-87
2023/06/10 09:06:03;;;;;;;8.65;5.35;;;;;;;;;;5098159;28;20298;-88
2023/06/10 09:08:30;;;;;;;5.78;5.07;;;;;;;;;;5114998;28;20181;-88
2023/06/10 09:10:56;;;;;;;8.43;5.35;;;;;;;;;;5114703;28;20170;-88
2023/06/10 09:13:22;;;;;;;7.10;5.05;;;;;;;;;;5114666;28;20181;-88
2023/06/10 09:15:51;;;;;;;7.18;5.60;;;;;;;;;;5097757;28;20181;-88
2023/06/10 09:18:17;;;;;;;6.80;5.60;;;;;;;;;;5114834;28;20169;-87
2023/06/10 09:20:44;;;;;;;7.75;5.47;;;;;;;;;;5114743;28;20170;-90
2023/06/10 09:23:12;;;;;;;6.32;5.18;;;;;;;;;;5114693;28;20202;-88
2023/06/10 09:25:39;;;;;;;6.88;4.82;;;;;;;;;;5114461;28;20174;-88
2023/06/10 09:28:05;;;;;;;6.38;5.45;;;;;;;;;;5097578;28;20265;-88
2023/06/10 09:30:35;;;;;;;5.85;4.93;;;;;;;;;;5114974;28;20174;-87
2023/06/10 09:33:02;;;;;;;8.13;5.40;;;;;;;;;;5114723;28;20174;-87
2023/06/10 09:35:29;;;;;;;6.93;5.20;;;;;;;;;;5114306;28;20180;-88
2023/06/10 09:37:58;;;;;;;9.07;5.20;;;;;;;;;;5097362;28;20177;-87
2023/06/10 09:40:25;;;;;;;11.05;5.70;;;;;;;;;;5114140;28;20169;-87
2023/06/10 09:42:58;;;;;;;7.85;4.88;;;;;;;;;;5114655;28;20198;-88
2023/06/10 09:45:28;;;;;;;9.60;6.93;;;;;;;;;;5108312;28;20183;-87
2023/06/10 09:47:55;;;;;;;6.55;4.70;;;;;;;;;;5093782;28;20435;-88
2023/06/10 09:50:22;;;;;;;7.63;4.80;;;;;;;;;;5093763;28;20174;-88
2023/06/10 09:52:48;;;;;;;10.10;5.10;;;;;;;;;;5093732;28;20245;-88
2023/06/10 09:55:15;;;;;;;7.18;5.00;;;;;;;;;;5060092;28;20182;-88
2023/06/10 09:57:44;;;;;;;14.55;5.40;;;;;;;;;;5093614;28;20279;-89
2023/06/10 10:00:10;;;;;;;7.05;5.38;;;;;;;;;;5056717;28;20290;-89
2023/06/10 10:02:55;;;;;;;8.50;4.45;;;;;;;;;;5056343;28;20203;-89
2023/06/10 10:05:22;;;;;;;7.60;5.22;;;;;;;;;;5073061;28;20201;-88
2023/06/10 10:07:51;;;;;;;8.68;4.65;;;;;;;;;;5073934;28;20179;-88
2023/06/10 10:10:19;;;;;;;6.38;5.32;;;;;;;;;;5073815;28;20172;-89
2023/06/10 10:12:47;;;;;;;6.07;4.90;;;;;;;;;;5073559;28;20246;-90
2023/06/10 10:15:13;;;;;;;7.10;5.13;;;;;;;;;;5073664;28;20175;-88
2023/06/10 10:18:06;;;;;;;6.90;4.93;;;;;;;;;;5073377;28;20197;-89
2023/06/10 10:20:35;;;;;;;6.55;4.65;;;;;;;;;;5052227;28;20183;-89
2023/06/10 10:23:04;;;;;;;6.47;4.78;;;;;;;;;;5073271;28;20214;-89
2023/06/10 10:25:35;;;;;;;7.30;4.60;;;;;;;;;;5073103;28;20183;-90
2023/06/10 10:28:07;;;;;;;6.57;4.50;;;;;;;;;;5073542;28;20167;-88
2023/06/10 10:30:38;;;;;;;8.43;4.80;;;;;;;;;;5073365;28;20197;-88
2023/06/10 10:33:11;;;;;;;5.18;4.35;;;;;;;;;;5073365;28;20194;-89
2023/06/10 10:35:38;;;;;;;5.07;4.57;;;;;;;;;;5073047;28;20182;-89
2023/06/10 10:38:06;;;;;;;5.38;4.20;;;;;;;;;;5073469;28;20186;-89
2023/06/10 10:40:33;;;;;;;5.20;4.63;;;;;;;;;;5073034;28;20167;-89
2023/06/10 10:43:00;;;;;;;6.45;4.65;;;;;;;;;;5072980;28;20256;-88
2023/06/10 10:45:28;;;;;;;5.50;4.35;;;;;;;;;;5074785;28;20262;-89
2023/06/10 10:47:57;;;;;;;5.90;4.60;;;;;;;;;;5093040;28;20240;-88
2023/06/10 10:50:25;;;;;;;4.90;4.50;;;;;;;;;;5093133;28;20170;-89
2023/06/10 10:52:56;;;;;;;8.93;4.43;;;;;;;;;;5092958;28;20180;-89
2023/06/10 10:55:25;;;;;;;4.63;4.20;;;;;;;;;;5092901;28;20269;-90
2023/06/10 10:57:58;;;;;;;6.32;4.57;;;;;;;;;;5092805;28;20179;-89
2023/06/10 11:00:25;;;;;;;6.57;4.75;;;;;;;;;;5093228;28;20175;-88
2023/06/10 11:02:53;;;;;;;7.38;4.40;;;;;;;;;;5059254;28;20219;-89
2023/06/10 11:05:34;;;;;;;4.55;4.13;;;;;;;;;;5109823;28;20202;-89
2023/06/10 11:08:00;;;;;;;5.10;4.60;;;;;;;;;;5101089;28;20235;-89
2023/06/10 11:10:34;;;;;;;9.57;4.28;;;;;;;;;;5105949;28;20174;-89
2023/06/10 11:13:00;;;;;;;6.03;4.45;;;;;;;;;;5096642;28;20178;-90
2023/06/10 11:15:27;;;;;;;5.40;4.47;;;;;;;;;;5100173;28;20206;-91
2023/06/10 11:18:13;;;;;;;5.05;4.50;;;;;;;;;;5099970;28;20219;-91
2023/06/10 11:20:42;;;;;;;6.38;4.55;;;;;;;;;;5083287;28;20231;-91
2023/06/10 11:23:08;;;;;;;5.53;4.10;;;;;;;;;;5099354;28;20201;-92
2023/06/10 11:25:41;;;;;;;6.03;4.72;;;;;;;;;;5100392;28;20170;-91
2023/06/10 11:28:33;;;;;;;6.22;4.20;;;;;;;;;;5100703;28;20265;-91
2023/06/10 11:30:59;;;;;;;4.95;4.53;;;;;;;;;;5096444;28;20190;-91
2023/06/10 11:33:25;;;;;;;7.45;4.55;;;;;;;;;;5100376;28;20182;-90
2023/06/10 11:35:51;;;;;;;6.18;4.05;;;;;;;;;;5099860;28;20177;-90
2023/06/10 11:38:18;;;;;;;5.25;4.63;;;;;;;;;;5100013;28;20170;-91
2023/06/10 11:40:50;;;;;;;7.13;4.90;;;;;;;;;;5099765;28;20178;-92
2023/06/10 11:43:20;;;;;;;5.85;4.32;;;;;;;;;;5100035;28;20209;-90
2023/06/10 11:45:55;;;;;;;8.82;4.40;;;;;;;;;;5099658;28;20170;-90
2023/06/10 11:48:23;;;;;;;4.82;4.43;;;;;;;;;;5100177;28;20166;-91
2023/06/10 11:50:49;;;;;;;5.85;5.03;;;;;;;;;;5099783;28;20227;-92
2023/06/10 11:53:15;;;;;;;7.13;4.55;;;;;;;;;;5100127;28;20182;-91
2023/06/10 11:55:45;;;;;;;5.80;4.15;;;;;;;;;;5099231;28;20231;-91
2023/06/10 11:58:15;;;;;;;6.35;4.88;;;;;;;;;;5098918;28;20308;-90
2023/06/10 12:00:45;;;;;;;6.20;5.07;;;;;;;;;;5086193;28;20186;-91
2023/06/10 12:03:11;;;;;;;5.13;4.63;;;;;;;;;;5093174;28;20225;-90
2023/06/10 12:05:37;;;;;;;5.18;4.68;;;;;;;;;;5096518;28;20190;-90
2023/06/10 12:08:21;;;;;;;5.40;4.60;;;;;;;;;;5091135;28;20169;-91
2023/06/10 12:10:47;;;;;;;5.22;4.72;;;;;;;;;;5080485;28;20174;-90
2023/06/10 12:13:17;;;;;;;5.97;4.70;;;;;;;;;;5078866;28;20179;-90
2023/06/10 12:15:44;;;;;;;5.65;4.70;;;;;;;;;;5078615;28;20189;-90
2023/06/10 12:18:17;;;;;;;6.35;4.85;;;;;;;;;;5078708;28;20179;-90
2023/06/10 12:20:45;;;;;;;5.70;4.68;;;;;;;;;;5078461;28;20261;-92
2023/06/10 12:23:14;;;;;;;8.68;4.75;;;;;;;;;;5078459;28;20206;-90
2023/06/10 12:25:41;;;;;;;7.28;4.68;;;;;;;;;;5061338;28;20186;-92
2023/06/10 12:28:13;;;;;;;6.20;4.63;;;;;;;;;;5061863;28;20174;-85
2023/06/10 12:30:39;;;;;;;6.63;4.80;;;;;;;;;;5077796;28;20213;-85
2023/06/10 12:33:16;;;;;;;5.63;4.82;;;;;;;;;;5077720;28;20174;-85
2023/06/10 12:35:48;;;;;;;6.63;5.20;;;;;;;;;;5077975;28;20261;-85
2023/06/10 12:38:14;;;;;;;5.22;4.72;;;;;;;;;;5078073;28;20178;-85
2023/06/10 12:40:40;;;;;;;5.40;4.75;;;;;;;;;;5078900;28;20174;-85
2023/06/10 12:43:09;;;;;;;5.18;4.57;;;;;;;;;;5116043;28;20231;-85
2023/06/10 12:45:39;;;;;;;5.45;4.95;;;;;;;;;;5118298;27;20177;-85
2023/06/10 12:48:12;;;;;;;5.85;4.78;;;;;;;;;;5090156;28;20167;-85
2023/06/10 12:50:51;;;;;;;7.47;5.10;;;;;;;;;;5098544;28;20162;-90
2023/06/10 12:53:22;;;;;;;6.63;4.88;;;;;;;;;;5098535;28;20177;-90
2023/06/10 12:55:49;;;;;;;7.60;5.47;;;;;;;;;;5098909;28;20217;-91
2023/06/10 12:58:15;;;;;;;5.85;4.90;;;;;;;;;;5098295;28;20214;-90
2023/06/10 13:00:42;;;;;;;5.70;5.20;;;;;;;;;;5097863;28;20186;-91
2023/06/10 13:03:08;;;;;;;6.22;4.95;;;;;;;;;;5123105;27;20213;-90
2023/06/10 13:05:38;;;;;;;5.40;4.90;;;;;;;;;;5087017;28;20193;-90
2023/06/10 13:08:04;;;;;;;6.25;5.00;;;;;;;;;;5100068;28;20192;-90
2023/06/10 13:10:30;;;;;;;6.38;4.85;;;;;;;;;;5099424;28;20181;-91
2023/06/10 13:12:56;;;;;;;7.07;4.90;;;;;;;;;;5097965;28;20226;-90
2023/06/10 13:15:26;;;;;;;6.50;5.10;;;;;;;;;;5098910;28;20170;-90
2023/06/10 13:17:52;;;;;;;8.13;5.00;;;;;;;;;;5100794;28;20177;-90
2023/06/10 13:20:19;;;;;;;5.97;4.93;;;;;;;;;;5098950;28;20178;-91
2023/06/10 13:22:45;;;;;;;7.18;5.22;;;;;;;;;;5097611;28;20217;-90
2023/06/10 13:25:11;;;;;;;8.10;5.13;;;;;;;;;;5097639;28;20213;-92
2023/06/10 13:27:38;;;;;;;6.28;5.00;;;;;;;;;;5097912;28;20173;-90
2023/06/10 13:30:05;;;;;;;7.97;5.20;;;;;;;;;;5097787;28;20182;-91
2023/06/10 13:32:31;;;;;;;8.65;5.28;;;;;;;;;;5097926;28;20178;-92
2023/06/10 13:34:57;;;;;;;9.20;5.40;;;;;;;;;;5097696;28;20210;-91
2023/06/10 13:37:24;;;;;;;5.85;5.25;;;;;;;;;;5096731;28;20178;-91
2023/06/10 13:39:50;;;;;;;5.68;5.07;;;;;;;;;;5097884;28;20214;-91
2023/06/10 13:42:19;;;;;;;6.85;5.30;;;;;;;;;;5097700;28;20201;-91
2023/06/10 13:44:47;;;;;;;5.43;4.93;;;;;;;;;;5098223;28;20170;-91
2023/06/10 13:47:15;;;;;;;7.82;5.22;;;;;;;;;;5097153;28;20180;-90
2023/06/10 13:49:41;;;;;;;6.35;4.95;;;;;;;;;;5097888;28;20184;-91
2023/06/10 13:52:08;;;;;;;8.75;5.05;;;;;;;;;;5097481;28;20170;-91
2023/06/10 13:54:37;;;;;;;8.48;5.30;;;;;;;;;;5096966;28;20185;-91
2023/06/10 13:57:03;;;;;;;6.30;5.38;;;;;;;;;;5096990;28;20170;-90
2023/06/10 13:59:29;;;;;;;7.72;5.50;;;;;;;;;;5097117;28;20226;-90
2023/06/10 14:01:56;;;;;;;6.95;5.10;;;;;;;;;;5097033;28;20198;-91
2023/06/10 14:04:25;;;;;;;9.15;5.30;;;;;;;;;;5096890;28;20173;-91
2023/06/10 14:06:51;;;;;;;5.47;5.00;;;;;;;;;;5097045;28;20284;-91
2023/06/10 14:09:17;;;;;;;5.35;4.95;;;;;;;;;;5096671;28;20181;-90
2023/06/10 14:11:47;;;;;;;8.55;5.28;;;;;;;;;;5097019;28;20185;-91
2023/06/10 14:14:14;;;;;;;7.47;5.03;;;;;;;;;;5096832;28;20181;-91
2023/06/10 14:16:40;;;;;;;6.30;5.13;;;;;;;;;;5080339;28;20188;-90
2023/06/10 14:19:08;;;;;;;7.72;5.53;;;;;;;;;;5096869;28;20205;-89
2023/06/10 14:21:34;;;;;;;7.00;4.97;;;;;;;;;;5096898;28;20194;-91
2023/06/10 14:24:09;;;;;;;6.47;5.25;;;;;;;;;;5096975;28;20176;-90
2023/06/10 14:26:35;;;;;;;7.88;5.47;;;;;;;;;;5096557;28;20169;-91
2023/06/10 14:29:02;;;;;;;6.03;5.43;;;;;;;;;;5094482;28;20181;-90
2023/06/10 14:31:28;;;;;;;6.82;5.32;;;;;;;;;;5075447;28;20201;-90
2023/06/10 14:33:54;;;;;;;6.47;5.30;;;;;;;;;;5076692;28;20213;-89
2023/06/10 14:36:20;;;;;;;5.80;5.20;;;;;;;;;;5076615;28;20170;-89
2023/06/10 14:38:47;;;;;;;5.75;5.25;;;;;;;;;;5076283;28;20206;-91
2023/06/10 14:41:15;;;;;;;6.60;5.30;;;;;;;;;;5076178;28;20171;-89
2023/06/10 14:43:41;;;;;;;5.82;5.32;;;;;;;;;;5076314;28;20175;-90